Kezdőlap
METAR-TAF:

METAR-TAF

Repülőterek :

Glasgow Municipal Airport

Glasgow, Kentucky, Amerikai Egyesült Államok

földrajzi szélesség: 37-01-54N, földrajzi hosszúság: 085-57-13W, magasság: 218 m

Jelenlegi meteorológiai megfigyelések

A jelentés 43 perccel ezelõtt készült, 10:15 UTC
Északi szél 3 kt
Hőmérséklet 22°C
Páratartalom 100%
Légköri nyomás 1017 hPa
Látótávolság: 16.1 km
Szakadozott felhőzet 2200 lábon
Szakadozott felhőzet 3200 lábon
Borult 11000 lábon

METAR: KGLW 211015Z AUTO 01003KT 10SM BKN022 BKN032 OVC110 22/22 A3004 RMK AO2 LTG DSNT NE AND NW T02180218

Idő: 05:58 (10:58 UTC)


TAF: hiányzik

Meteorológiai megfigyelések és előrejelzések több, mint 4000 repülőtéren (METAR és TAF jelentéseket).

A térképen piros és sárga pontok jelzik az elérhető meteorológiai állomásokat.

Mozgassa az egeret a pont fölött, hogy megjelenjen az állomás neve.

Azután kattintson az időjárási megfigyelések és előrejelzések megtekintéséhez.

A térkép megváltoztatása: kattintson a fekete keresztel jelölt zöld gombra ráközelítéshez, a vonallal jelölt zöld gombra távolításhoz, vagy a zöld nyilakra a szomszédos térképek eléréséhez.


METAR-TAF: